sensor_id;sensor_type;location;lat;lon;timestamp;P1;durP1;ratioP1;P2;durP2;ratioP2
4577;SDS011;2301;47.354;8.528;2022-08-24T00:01:34;4.40;;;2.53;;
4577;SDS011;2301;47.354;8.528;2022-08-24T00:04:01;3.00;;;2.60;;
4577;SDS011;2301;47.354;8.528;2022-08-24T00:06:28;5.93;;;2.83;;
4577;SDS011;2301;47.354;8.528;2022-08-24T00:08:55;2.40;;;2.20;;
4577;SDS011;2301;47.354;8.528;2022-08-24T00:11:24;2.57;;;2.37;;
4577;SDS011;2301;47.354;8.528;2022-08-24T00:13:51;3.03;;;2.60;;
4577;SDS011;2301;47.354;8.528;2022-08-24T00:16:19;3.80;;;2.60;;
4577;SDS011;2301;47.354;8.528;2022-08-24T00:18:47;5.73;;;3.00;;
4577;SDS011;2301;47.354;8.528;2022-08-24T00:21:14;3.03;;;2.73;;
4577;SDS011;2301;47.354;8.528;2022-08-24T00:23:41;3.50;;;2.70;;
4577;SDS011;2301;47.354;8.528;2022-08-24T00:26:08;4.80;;;2.70;;
4577;SDS011;2301;47.354;8.528;2022-08-24T00:28:35;3.10;;;2.80;;
4577;SDS011;2301;47.354;8.528;2022-08-24T00:31:02;6.17;;;2.93;;
4577;SDS011;2301;47.354;8.528;2022-08-24T00:33:31;7.80;;;3.03;;
4577;SDS011;2301;47.354;8.528;2022-08-24T00:35:58;8.83;;;2.67;;
4577;SDS011;2301;47.354;8.528;2022-08-24T00:38:25;5.00;;;3.10;;
4577;SDS011;2301;47.354;8.528;2022-08-24T00:40:52;7.50;;;2.50;;
4577;SDS011;2301;47.354;8.528;2022-08-24T00:43:20;6.53;;;2.67;;
4577;SDS011;2301;47.354;8.528;2022-08-24T00:45:50;4.23;;;2.50;;
4577;SDS011;2301;47.354;8.528;2022-08-24T00:48:29;2.47;;;2.27;;
4577;SDS011;2301;47.354;8.528;2022-08-24T00:51:01;3.80;;;2.53;;
4577;SDS011;2301;47.354;8.528;2022-08-24T00:53:32;7.87;;;2.60;;
4577;SDS011;2301;47.354;8.528;2022-08-24T00:56:03;6.87;;;2.60;;
4577;SDS011;2301;47.354;8.528;2022-08-24T00:58:34;8.87;;;2.60;;
4577;SDS011;2301;47.354;8.528;2022-08-24T01:01:07;2.73;;;2.53;;
4577;SDS011;2301;47.354;8.528;2022-08-24T01:03:39;3.37;;;2.73;;
4577;SDS011;2301;47.354;8.528;2022-08-24T01:06:07;5.17;;;2.70;;
4577;SDS011;2301;47.354;8.528;2022-08-24T01:08:36;5.87;;;2.23;;
4577;SDS011;2301;47.354;8.528;2022-08-24T01:11:04;7.07;;;2.60;;
4577;SDS011;2301;47.354;8.528;2022-08-24T01:13:33;3.37;;;2.87;;
4577;SDS011;2301;47.354;8.528;2022-08-24T01:16:01;4.00;;;2.30;;
4577;SDS011;2301;47.354;8.528;2022-08-24T01:18:30;5.47;;;2.77;;
4577;SDS011;2301;47.354;8.528;2022-08-24T01:21:16;3.93;;;2.57;;
4577;SDS011;2301;47.354;8.528;2022-08-24T01:23:48;4.13;;;2.20;;
4577;SDS011;2301;47.354;8.528;2022-08-24T01:26:18;4.33;;;2.50;;
4577;SDS011;2301;47.354;8.528;2022-08-24T01:28:49;5.57;;;2.43;;
4577;SDS011;2301;47.354;8.528;2022-08-24T01:31:25;3.80;;;2.60;;
4577;SDS011;2301;47.354;8.528;2022-08-24T01:33:52;3.00;;;2.50;;
4577;SDS011;2301;47.354;8.528;2022-08-24T01:36:22;2.73;;;2.53;;
4577;SDS011;2301;47.354;8.528;2022-08-24T01:38:56;3.50;;;2.40;;
4577;SDS011;2301;47.354;8.528;2022-08-24T01:41:26;2.60;;;2.20;;
4577;SDS011;2301;47.354;8.528;2022-08-24T01:43:53;3.43;;;2.63;;
4577;SDS011;2301;47.354;8.528;2022-08-24T01:46:20;2.90;;;2.13;;
4577;SDS011;2301;47.354;8.528;2022-08-24T01:48:47;3.70;;;2.63;;
4577;SDS011;2301;47.354;8.528;2022-08-24T01:51:14;2.57;;;2.37;;
4577;SDS011;2301;47.354;8.528;2022-08-24T01:53:41;3.90;;;2.77;;
4577;SDS011;2301;47.354;8.528;2022-08-24T01:56:09;2.80;;;2.60;;
4577;SDS011;2301;47.354;8.528;2022-08-24T01:58:41;2.90;;;2.40;;
4577;SDS011;2301;47.354;8.528;2022-08-24T02:01:09;3.40;;;2.60;;
4577;SDS011;2301;47.354;8.528;2022-08-24T02:03:36;4.23;;;2.67;;
4577;SDS011;2301;47.354;8.528;2022-08-24T02:06:03;3.00;;;2.57;;
4577;SDS011;2301;47.354;8.528;2022-08-24T02:08:31;5.33;;;2.40;;
4577;SDS011;2301;47.354;8.528;2022-08-24T02:11:00;4.33;;;2.60;;
4577;SDS011;2301;47.354;8.528;2022-08-24T02:13:29;4.20;;;2.70;;
4577;SDS011;2301;47.354;8.528;2022-08-24T02:15:57;4.37;;;2.63;;
4577;SDS011;2301;47.354;8.528;2022-08-24T02:18:24;2.60;;;2.40;;
4577;SDS011;2301;47.354;8.528;2022-08-24T02:20:51;5.17;;;2.50;;
4577;SDS011;2301;47.354;8.528;2022-08-24T02:23:18;6.17;;;2.33;;
4577;SDS011;2301;47.354;8.528;2022-08-24T02:25:46;8.00;;;2.97;;
4577;SDS011;2301;47.354;8.528;2022-08-24T02:28:13;3.57;;;2.40;;
4577;SDS011;2301;47.354;8.528;2022-08-24T02:30:42;10.67;;;2.50;;
4577;SDS011;2301;47.354;8.528;2022-08-24T02:33:09;5.20;;;2.47;;
4577;SDS011;2301;47.354;8.528;2022-08-24T02:35:37;5.87;;;2.50;;
4577;SDS011;2301;47.354;8.528;2022-08-24T02:38:03;2.80;;;2.60;;
4577;SDS011;2301;47.354;8.528;2022-08-24T02:40:31;3.97;;;2.60;;
4577;SDS011;2301;47.354;8.528;2022-08-24T02:42:57;2.90;;;2.57;;
4577;SDS011;2301;47.354;8.528;2022-08-24T02:45:24;2.70;;;2.43;;
4577;SDS011;2301;47.354;8.528;2022-08-24T02:47:53;13.00;;;3.00;;
4577;SDS011;2301;47.354;8.528;2022-08-24T02:50:20;4.47;;;2.50;;
4577;SDS011;2301;47.354;8.528;2022-08-24T02:52:47;1.97;;;1.87;;
4577;SDS011;2301;47.354;8.528;2022-08-24T02:55:15;4.37;;;2.90;;
4577;SDS011;2301;47.354;8.528;2022-08-24T02:57:43;3.60;;;2.90;;
4577;SDS011;2301;47.354;8.528;2022-08-24T03:00:13;5.10;;;2.90;;
4577;SDS011;2301;47.354;8.528;2022-08-24T03:02:41;3.30;;;2.30;;
4577;SDS011;2301;47.354;8.528;2022-08-24T03:05:10;3.53;;;2.73;;
4577;SDS011;2301;47.354;8.528;2022-08-24T03:07:38;3.30;;;2.50;;
4577;SDS011;2301;47.354;8.528;2022-08-24T03:10:05;3.13;;;2.83;;
4577;SDS011;2301;47.354;8.528;2022-08-24T03:12:33;4.30;;;3.20;;
4577;SDS011;2301;47.354;8.528;2022-08-24T03:15:00;4.17;;;2.43;;
4577;SDS011;2301;47.354;8.528;2022-08-24T03:17:27;4.67;;;2.50;;
4577;SDS011;2301;47.354;8.528;2022-08-24T03:19:55;4.20;;;2.70;;
4577;SDS011;2301;47.354;8.528;2022-08-24T03:22:23;3.03;;;2.50;;
4577;SDS011;2301;47.354;8.528;2022-08-24T03:24:50;5.23;;;2.50;;
4577;SDS011;2301;47.354;8.528;2022-08-24T03:27:17;4.57;;;2.30;;
4577;SDS011;2301;47.354;8.528;2022-08-24T03:29:44;3.60;;;2.60;;
4577;SDS011;2301;47.354;8.528;2022-08-24T03:32:11;4.37;;;2.70;;
4577;SDS011;2301;47.354;8.528;2022-08-24T03:34:38;5.33;;;2.80;;
4577;SDS011;2301;47.354;8.528;2022-08-24T03:37:05;3.77;;;2.50;;
4577;SDS011;2301;47.354;8.528;2022-08-24T03:39:33;4.93;;;2.97;;
4577;SDS011;2301;47.354;8.528;2022-08-24T03:42:00;3.60;;;2.90;;
4577;SDS011;2301;47.354;8.528;2022-08-24T03:44:27;4.50;;;2.30;;
4577;SDS011;2301;47.354;8.528;2022-08-24T03:46:54;3.57;;;2.67;;
4577;SDS011;2301;47.354;8.528;2022-08-24T03:49:21;3.20;;;2.70;;
4577;SDS011;2301;47.354;8.528;2022-08-24T03:51:48;4.30;;;2.47;;
4577;SDS011;2301;47.354;8.528;2022-08-24T03:54:15;3.43;;;2.60;;
4577;SDS011;2301;47.354;8.528;2022-08-24T03:56:44;4.23;;;2.77;;
4577;SDS011;2301;47.354;8.528;2022-08-24T03:59:11;5.37;;;2.93;;
4577;SDS011;2301;47.354;8.528;2022-08-24T04:01:38;4.47;;;2.67;;
4577;SDS011;2301;47.354;8.528;2022-08-24T04:04:05;4.40;;;2.80;;
4577;SDS011;2301;47.354;8.528;2022-08-24T04:06:32;3.70;;;2.77;;
4577;SDS011;2301;47.354;8.528;2022-08-24T04:08:59;3.73;;;2.87;;
4577;SDS011;2301;47.354;8.528;2022-08-24T04:11:26;4.63;;;2.80;;
4577;SDS011;2301;47.354;8.528;2022-08-24T04:13:56;3.00;;;2.70;;
4577;SDS011;2301;47.354;8.528;2022-08-24T04:16:24;3.40;;;3.10;;
4577;SDS011;2301;47.354;8.528;2022-08-24T04:18:52;4.20;;;2.80;;
4577;SDS011;2301;47.354;8.528;2022-08-24T04:21:20;4.57;;;2.50;;
4577;SDS011;2301;47.354;8.528;2022-08-24T04:23:49;4.57;;;2.97;;
4577;SDS011;2301;47.354;8.528;2022-08-24T04:26:17;5.47;;;2.77;;
4577;SDS011;2301;47.354;8.528;2022-08-24T04:28:45;4.70;;;2.70;;
4577;SDS011;2301;47.354;8.528;2022-08-24T04:31:13;3.80;;;3.07;;
4577;SDS011;2301;47.354;8.528;2022-08-24T04:33:42;5.50;;;3.33;;
4577;SDS011;2301;47.354;8.528;2022-08-24T04:36:09;2.93;;;2.60;;
4577;SDS011;2301;47.354;8.528;2022-08-24T04:38:36;4.77;;;2.80;;
4577;SDS011;2301;47.354;8.528;2022-08-24T04:41:04;7.60;;;3.13;;
4577;SDS011;2301;47.354;8.528;2022-08-24T04:43:33;4.80;;;3.07;;
4577;SDS011;2301;47.354;8.528;2022-08-24T04:46:03;3.03;;;2.73;;
4577;SDS011;2301;47.354;8.528;2022-08-24T04:48:32;7.97;;;3.47;;
4577;SDS011;2301;47.354;8.528;2022-08-24T04:51:00;3.83;;;3.00;;
4577;SDS011;2301;47.354;8.528;2022-08-24T04:53:28;3.73;;;3.07;;
4577;SDS011;2301;47.354;8.528;2022-08-24T04:55:55;4.17;;;3.67;;
4577;SDS011;2301;47.354;8.528;2022-08-24T04:58:22;9.90;;;3.23;;
4577;SDS011;2301;47.354;8.528;2022-08-24T05:00:49;3.67;;;2.87;;
4577;SDS011;2301;47.354;8.528;2022-08-24T05:03:16;3.30;;;2.57;;
4577;SDS011;2301;47.354;8.528;2022-08-24T05:05:46;4.27;;;2.90;;
4577;SDS011;2301;47.354;8.528;2022-08-24T05:08:14;6.40;;;3.10;;
4577;SDS011;2301;47.354;8.528;2022-08-24T05:10:43;4.30;;;2.97;;
4577;SDS011;2301;47.354;8.528;2022-08-24T05:13:14;5.20;;;3.50;;
4577;SDS011;2301;47.354;8.528;2022-08-24T05:15:42;8.70;;;3.13;;
4577;SDS011;2301;47.354;8.528;2022-08-24T05:18:11;5.23;;;2.87;;
4577;SDS011;2301;47.354;8.528;2022-08-24T05:20:39;5.23;;;2.97;;
4577;SDS011;2301;47.354;8.528;2022-08-24T05:23:08;5.83;;;3.53;;
4577;SDS011;2301;47.354;8.528;2022-08-24T05:25:35;6.13;;;3.33;;
4577;SDS011;2301;47.354;8.528;2022-08-24T05:28:03;6.07;;;3.33;;
4577;SDS011;2301;47.354;8.528;2022-08-24T05:30:30;6.13;;;2.80;;
4577;SDS011;2301;47.354;8.528;2022-08-24T05:32:57;10.43;;;3.33;;
4577;SDS011;2301;47.354;8.528;2022-08-24T05:35:24;4.77;;;2.93;;
4577;SDS011;2301;47.354;8.528;2022-08-24T05:37:51;4.87;;;3.27;;
4577;SDS011;2301;47.354;8.528;2022-08-24T05:40:19;6.47;;;3.60;;
4577;SDS011;2301;47.354;8.528;2022-08-24T05:42:47;8.97;;;3.37;;
4577;SDS011;2301;47.354;8.528;2022-08-24T05:45:14;10.80;;;3.60;;
4577;SDS011;2301;47.354;8.528;2022-08-24T05:47:41;4.80;;;3.37;;
4577;SDS011;2301;47.354;8.528;2022-08-24T05:50:08;5.43;;;3.00;;
4577;SDS011;2301;47.354;8.528;2022-08-24T05:52:35;5.97;;;3.17;;
4577;SDS011;2301;47.354;8.528;2022-08-24T05:55:02;10.83;;;3.40;;
4577;SDS011;2301;47.354;8.528;2022-08-24T05:57:32;5.60;;;3.20;;
4577;SDS011;2301;47.354;8.528;2022-08-24T06:00:02;5.80;;;3.50;;
4577;SDS011;2301;47.354;8.528;2022-08-24T06:02:31;4.77;;;3.00;;
4577;SDS011;2301;47.354;8.528;2022-08-24T06:04:59;8.33;;;3.57;;
4577;SDS011;2301;47.354;8.528;2022-08-24T06:07:25;5.50;;;2.77;;
4577;SDS011;2301;47.354;8.528;2022-08-24T06:09:52;6.83;;;3.50;;
4577;SDS011;2301;47.354;8.528;2022-08-24T06:12:19;5.33;;;2.73;;
4577;SDS011;2301;47.354;8.528;2022-08-24T06:14:47;4.70;;;2.70;;
4577;SDS011;2301;47.354;8.528;2022-08-24T06:17:14;4.40;;;2.90;;
4577;SDS011;2301;47.354;8.528;2022-08-24T06:19:41;3.27;;;2.97;;
4577;SDS011;2301;47.354;8.528;2022-08-24T06:22:08;6.63;;;3.73;;
4577;SDS011;2301;47.354;8.528;2022-08-24T06:24:36;7.17;;;3.33;;
4577;SDS011;2301;47.354;8.528;2022-08-24T06:27:20;4.67;;;3.30;;
4577;SDS011;2301;47.354;8.528;2022-08-24T06:29:51;5.40;;;3.50;;
4577;SDS011;2301;47.354;8.528;2022-08-24T06:32:22;8.50;;;3.67;;
4577;SDS011;2301;47.354;8.528;2022-08-24T06:34:50;25.80;;;4.77;;
4577;SDS011;2301;47.354;8.528;2022-08-24T06:37:20;4.53;;;4.07;;
4577;SDS011;2301;47.354;8.528;2022-08-24T06:39:50;9.30;;;4.20;;
4577;SDS011;2301;47.354;8.528;2022-08-24T06:42:17;7.43;;;3.83;;
4577;SDS011;2301;47.354;8.528;2022-08-24T06:44:44;8.50;;;4.03;;
4577;SDS011;2301;47.354;8.528;2022-08-24T06:47:12;13.37;;;4.90;;
4577;SDS011;2301;47.354;8.528;2022-08-24T06:49:39;11.23;;;4.07;;
4577;SDS011;2301;47.354;8.528;2022-08-24T06:52:06;7.87;;;3.90;;
4577;SDS011;2301;47.354;8.528;2022-08-24T06:54:35;4.77;;;3.77;;
4577;SDS011;2301;47.354;8.528;2022-08-24T06:57:02;9.63;;;4.33;;
4577;SDS011;2301;47.354;8.528;2022-08-24T06:59:29;7.50;;;4.60;;
4577;SDS011;2301;47.354;8.528;2022-08-24T07:01:57;7.03;;;4.20;;
4577;SDS011;2301;47.354;8.528;2022-08-24T07:04:26;6.60;;;3.70;;
4577;SDS011;2301;47.354;8.528;2022-08-24T07:06:54;7.77;;;4.00;;
4577;SDS011;2301;47.354;8.528;2022-08-24T07:09:21;13.83;;;5.13;;
4577;SDS011;2301;47.354;8.528;2022-08-24T07:11:48;11.50;;;5.00;;
4577;SDS011;2301;47.354;8.528;2022-08-24T07:14:16;8.50;;;4.70;;
4577;SDS011;2301;47.354;8.528;2022-08-24T07:16:43;10.40;;;4.20;;
4577;SDS011;2301;47.354;8.528;2022-08-24T07:19:11;7.80;;;4.00;;
4577;SDS011;2301;47.354;8.528;2022-08-24T07:21:39;5.83;;;3.70;;
4577;SDS011;2301;47.354;8.528;2022-08-24T07:24:06;9.67;;;4.20;;
4577;SDS011;2301;47.354;8.528;2022-08-24T07:26:34;11.03;;;3.90;;
4577;SDS011;2301;47.354;8.528;2022-08-24T07:29:04;9.93;;;3.83;;
4577;SDS011;2301;47.354;8.528;2022-08-24T07:31:32;5.77;;;4.33;;
4577;SDS011;2301;47.354;8.528;2022-08-24T07:33:59;8.13;;;3.80;;
4577;SDS011;2301;47.354;8.528;2022-08-24T07:36:26;27.23;;;3.90;;
4577;SDS011;2301;47.354;8.528;2022-08-24T07:38:54;5.37;;;3.47;;
4577;SDS011;2301;47.354;8.528;2022-08-24T07:41:22;7.60;;;3.10;;
4577;SDS011;2301;47.354;8.528;2022-08-24T07:43:51;5.53;;;2.90;;
4577;SDS011;2301;47.354;8.528;2022-08-24T07:46:18;4.90;;;2.90;;
4577;SDS011;2301;47.354;8.528;2022-08-24T07:48:45;9.70;;;3.27;;
4577;SDS011;2301;47.354;8.528;2022-08-24T07:51:12;5.20;;;2.90;;
4577;SDS011;2301;47.354;8.528;2022-08-24T07:53:40;9.63;;;3.00;;
4577;SDS011;2301;47.354;8.528;2022-08-24T07:56:09;21.03;;;4.00;;
4577;SDS011;2301;47.354;8.528;2022-08-24T07:58:37;4.70;;;2.50;;
4577;SDS011;2301;47.354;8.528;2022-08-24T08:01:04;6.37;;;3.07;;
4577;SDS011;2301;47.354;8.528;2022-08-24T08:03:33;6.00;;;2.63;;
4577;SDS011;2301;47.354;8.528;2022-08-24T08:06:01;3.10;;;2.37;;
4577;SDS011;2301;47.354;8.528;2022-08-24T08:08:30;4.10;;;2.43;;
4577;SDS011;2301;47.354;8.528;2022-08-24T08:10:59;3.67;;;2.90;;
4577;SDS011;2301;47.354;8.528;2022-08-24T08:13:28;5.33;;;2.10;;
4577;SDS011;2301;47.354;8.528;2022-08-24T08:15:55;1.87;;;1.77;;
4577;SDS011;2301;47.354;8.528;2022-08-24T08:18:23;3.13;;;2.60;;
4577;SDS011;2301;47.354;8.528;2022-08-24T08:20:51;6.27;;;2.70;;
4577;SDS011;2301;47.354;8.528;2022-08-24T08:23:18;12.43;;;2.87;;
4577;SDS011;2301;47.354;8.528;2022-08-24T08:26:04;4.33;;;2.60;;
4577;SDS011;2301;47.354;8.528;2022-08-24T08:28:33;5.47;;;2.60;;
4577;SDS011;2301;47.354;8.528;2022-08-24T08:31:01;6.67;;;3.07;;
4577;SDS011;2301;47.354;8.528;2022-08-24T08:33:29;5.20;;;2.50;;
4577;SDS011;2301;47.354;8.528;2022-08-24T08:36:00;5.40;;;3.07;;
4577;SDS011;2301;47.354;8.528;2022-08-24T08:38:30;5.13;;;2.60;;
4577;SDS011;2301;47.354;8.528;2022-08-24T08:41:06;7.63;;;2.90;;
4577;SDS011;2301;47.354;8.528;2022-08-24T08:43:51;2.97;;;2.77;;
4577;SDS011;2301;47.354;8.528;2022-08-24T08:46:26;4.67;;;2.73;;
4577;SDS011;2301;47.354;8.528;2022-08-24T08:49:15;7.40;;;2.93;;
4577;SDS011;2301;47.354;8.528;2022-08-24T08:52:12;3.30;;;2.70;;
4577;SDS011;2301;47.354;8.528;2022-08-24T08:54:56;3.00;;;2.80;;
4577;SDS011;2301;47.354;8.528;2022-08-24T08:57:45;3.60;;;3.00;;
4577;SDS011;2301;47.354;8.528;2022-08-24T09:00:22;5.73;;;2.30;;
4577;SDS011;2301;47.354;8.528;2022-08-24T09:06:13;3.87;;;2.70;;
4577;SDS011;2301;47.354;8.528;2022-08-24T09:09:18;2.40;;;2.10;;
4577;SDS011;2301;47.354;8.528;2022-08-24T09:11:59;2.70;;;2.03;;
4577;SDS011;2301;47.354;8.528;2022-08-24T09:14:37;3.13;;;2.80;;
4577;SDS011;2301;47.354;8.528;2022-08-24T09:17:25;5.07;;;2.23;;
4577;SDS011;2301;47.354;8.528;2022-08-24T09:20:17;4.30;;;2.73;;
4577;SDS011;2301;47.354;8.528;2022-08-24T09:22:59;3.17;;;2.50;;
4577;SDS011;2301;47.354;8.528;2022-08-24T09:25:35;4.50;;;2.50;;
4577;SDS011;2301;47.354;8.528;2022-08-24T09:28:15;3.77;;;2.37;;
4577;SDS011;2301;47.354;8.528;2022-08-24T09:31:09;3.93;;;2.90;;
4577;SDS011;2301;47.354;8.528;2022-08-24T09:33:52;2.97;;;2.23;;
4577;SDS011;2301;47.354;8.528;2022-08-24T09:36:34;2.47;;;2.27;;
4577;SDS011;2301;47.354;8.528;2022-08-24T09:39:13;4.97;;;2.23;;
4577;SDS011;2301;47.354;8.528;2022-08-24T09:45:13;4.30;;;2.00;;
4577;SDS011;2301;47.354;8.528;2022-08-24T09:48:14;3.00;;;1.80;;
4577;SDS011;2301;47.354;8.528;2022-08-24T09:54:18;2.00;;;1.80;;
4577;SDS011;2301;47.354;8.528;2022-08-24T09:56:59;2.13;;;1.93;;
4577;SDS011;2301;47.354;8.528;2022-08-24T09:59:44;2.20;;;2.00;;
4577;SDS011;2301;47.354;8.528;2022-08-24T10:02:32;2.30;;;2.10;;
4577;SDS011;2301;47.354;8.528;2022-08-24T10:05:21;2.70;;;2.13;;
4577;SDS011;2301;47.354;8.528;2022-08-24T10:07:57;3.63;;;2.13;;
4577;SDS011;2301;47.354;8.528;2022-08-24T10:10:38;2.60;;;1.90;;
4577;SDS011;2301;47.354;8.528;2022-08-24T10:13:19;3.30;;;2.07;;
4577;SDS011;2301;47.354;8.528;2022-08-24T10:15:55;1.83;;;1.73;;
4577;SDS011;2301;47.354;8.528;2022-08-24T10:18:44;4.90;;;2.03;;
4577;SDS011;2301;47.354;8.528;2022-08-24T10:21:22;1.90;;;1.80;;
4577;SDS011;2301;47.354;8.528;2022-08-24T10:24:05;2.13;;;1.93;;
4577;SDS011;2301;47.354;8.528;2022-08-24T10:27:00;2.10;;;1.90;;
4577;SDS011;2301;47.354;8.528;2022-08-24T10:29:59;4.83;;;2.00;;
4577;SDS011;2301;47.354;8.528;2022-08-24T10:32:42;4.50;;;2.60;;
4577;SDS011;2301;47.354;8.528;2022-08-24T10:35:19;2.83;;;1.80;;
4577;SDS011;2301;47.354;8.528;2022-08-24T10:41:15;2.50;;;1.70;;
4577;SDS011;2301;47.354;8.528;2022-08-24T10:44:22;1.97;;;1.77;;
4577;SDS011;2301;47.354;8.528;2022-08-24T10:47:11;2.23;;;1.80;;
4577;SDS011;2301;47.354;8.528;2022-08-24T10:49:53;1.77;;;1.67;;
4577;SDS011;2301;47.354;8.528;2022-08-24T10:53:00;2.23;;;1.83;;
4577;SDS011;2301;47.354;8.528;2022-08-24T10:55:44;2.37;;;1.90;;
4577;SDS011;2301;47.354;8.528;2022-08-24T11:01:20;1.60;;;1.43;;
4577;SDS011;2301;47.354;8.528;2022-08-24T11:03:53;4.87;;;1.90;;
4577;SDS011;2301;47.354;8.528;2022-08-24T11:06:23;2.73;;;1.47;;
4577;SDS011;2301;47.354;8.528;2022-08-24T11:08:53;2.03;;;1.80;;
4577;SDS011;2301;47.354;8.528;2022-08-24T11:11:25;2.30;;;2.10;;
4577;SDS011;2301;47.354;8.528;2022-08-24T11:13:54;2.13;;;1.50;;
4577;SDS011;2301;47.354;8.528;2022-08-24T11:16:27;1.50;;;1.33;;
4577;SDS011;2301;47.354;8.528;2022-08-24T11:18:57;2.90;;;1.70;;
4577;SDS011;2301;47.354;8.528;2022-08-24T11:21:36;3.57;;;1.73;;
4577;SDS011;2301;47.354;8.528;2022-08-24T11:24:30;1.93;;;1.70;;
4577;SDS011;2301;47.354;8.528;2022-08-24T11:27:07;1.67;;;1.57;;
4577;SDS011;2301;47.354;8.528;2022-08-24T11:29:54;2.20;;;1.90;;
4577;SDS011;2301;47.354;8.528;2022-08-24T11:32:30;1.67;;;1.57;;
4577;SDS011;2301;47.354;8.528;2022-08-24T11:35:03;6.80;;;1.70;;
4577;SDS011;2301;47.354;8.528;2022-08-24T11:37:34;1.90;;;1.80;;
4577;SDS011;2301;47.354;8.528;2022-08-24T11:40:03;1.93;;;1.80;;
4577;SDS011;2301;47.354;8.528;2022-08-24T11:42:34;3.57;;;2.07;;
4577;SDS011;2301;47.354;8.528;2022-08-24T11:45:11;3.03;;;1.87;;
4577;SDS011;2301;47.354;8.528;2022-08-24T11:47:46;5.00;;;1.90;;
4577;SDS011;2301;47.354;8.528;2022-08-24T11:50:27;1.90;;;1.80;;
4577;SDS011;2301;47.354;8.528;2022-08-24T11:53:02;2.30;;;1.80;;
4577;SDS011;2301;47.354;8.528;2022-08-24T11:55:39;1.87;;;1.60;;
4577;SDS011;2301;47.354;8.528;2022-08-24T11:58:15;1.90;;;1.70;;
4577;SDS011;2301;47.354;8.528;2022-08-24T12:00:52;3.47;;;1.60;;
4577;SDS011;2301;47.354;8.528;2022-08-24T12:03:38;2.70;;;1.80;;
4577;SDS011;2301;47.354;8.528;2022-08-24T12:06:13;1.83;;;1.73;;
4577;SDS011;2301;47.354;8.528;2022-08-24T12:08:54;5.57;;;2.00;;
4577;SDS011;2301;47.354;8.528;2022-08-24T12:11:31;2.67;;;1.93;;
4577;SDS011;2301;47.354;8.528;2022-08-24T12:14:04;2.27;;;1.50;;
4577;SDS011;2301;47.354;8.528;2022-08-24T12:16:41;2.67;;;1.87;;
4577;SDS011;2301;47.354;8.528;2022-08-24T12:19:15;2.10;;;1.90;;
4577;SDS011;2301;47.354;8.528;2022-08-24T12:21:47;1.63;;;1.53;;
4577;SDS011;2301;47.354;8.528;2022-08-24T12:24:19;7.13;;;2.17;;
4577;SDS011;2301;47.354;8.528;2022-08-24T12:26:52;2.10;;;1.63;;
4577;SDS011;2301;47.354;8.528;2022-08-24T12:29:25;1.53;;;1.40;;
4577;SDS011;2301;47.354;8.528;2022-08-24T12:31:55;2.10;;;2.00;;
4577;SDS011;2301;47.354;8.528;2022-08-24T12:34:28;2.60;;;2.00;;
4577;SDS011;2301;47.354;8.528;2022-08-24T12:37:04;2.33;;;1.90;;
4577;SDS011;2301;47.354;8.528;2022-08-24T12:39:34;3.17;;;2.20;;
4577;SDS011;2301;47.354;8.528;2022-08-24T12:42:06;2.10;;;1.77;;
4577;SDS011;2301;47.354;8.528;2022-08-24T12:44:41;1.70;;;1.60;;
4577;SDS011;2301;47.354;8.528;2022-08-24T12:47:16;1.80;;;1.70;;
4577;SDS011;2301;47.354;8.528;2022-08-24T12:49:52;1.80;;;1.70;;
4577;SDS011;2301;47.354;8.528;2022-08-24T12:52:28;1.70;;;1.60;;
4577;SDS011;2301;47.354;8.528;2022-08-24T12:55:22;2.83;;;1.90;;
4577;SDS011;2301;47.354;8.528;2022-08-24T12:58:21;1.87;;;1.60;;
4577;SDS011;2301;47.354;8.528;2022-08-24T13:01:06;1.80;;;1.70;;
4577;SDS011;2301;47.354;8.528;2022-08-24T13:03:35;6.73;;;1.97;;
4577;SDS011;2301;47.354;8.528;2022-08-24T13:06:06;1.70;;;1.60;;
4577;SDS011;2301;47.354;8.528;2022-08-24T13:08:37;5.63;;;1.80;;
4577;SDS011;2301;47.354;8.528;2022-08-24T13:11:07;4.30;;;1.53;;
4577;SDS011;2301;47.354;8.528;2022-08-24T13:13:39;2.10;;;1.73;;
4577;SDS011;2301;47.354;8.528;2022-08-24T13:16:09;3.13;;;1.77;;
4577;SDS011;2301;47.354;8.528;2022-08-24T13:22:35;4.00;;;1.53;;
4577;SDS011;2301;47.354;8.528;2022-08-24T13:31:17;5.40;;;1.50;;
4577;SDS011;2301;47.354;8.528;2022-08-24T13:33:50;3.30;;;1.73;;
4577;SDS011;2301;47.354;8.528;2022-08-24T13:42:19;3.20;;;1.60;;
4577;SDS011;2301;47.354;8.528;2022-08-24T13:44:58;3.33;;;1.50;;
4577;SDS011;2301;47.354;8.528;2022-08-24T13:47:44;1.53;;;1.20;;
4577;SDS011;2301;47.354;8.528;2022-08-24T13:50:26;1.87;;;1.70;;
4577;SDS011;2301;47.354;8.528;2022-08-24T13:53:07;1.53;;;1.43;;
4577;SDS011;2301;47.354;8.528;2022-08-24T13:55:55;3.53;;;1.77;;
4577;SDS011;2301;47.354;8.528;2022-08-24T13:58:45;2.10;;;1.50;;
4577;SDS011;2301;47.354;8.528;2022-08-24T14:01:23;4.30;;;1.80;;
4577;SDS011;2301;47.354;8.528;2022-08-24T14:04:10;2.50;;;1.70;;
4577;SDS011;2301;47.354;8.528;2022-08-24T14:06:56;2.80;;;1.53;;
4577;SDS011;2301;47.354;8.528;2022-08-24T14:09:33;5.30;;;2.10;;
4577;SDS011;2301;47.354;8.528;2022-08-24T14:12:11;3.67;;;1.90;;
4577;SDS011;2301;47.354;8.528;2022-08-24T14:14:59;5.33;;;1.63;;
4577;SDS011;2301;47.354;8.528;2022-08-24T14:17:39;7.53;;;1.43;;
4577;SDS011;2301;47.354;8.528;2022-08-24T14:20:18;2.00;;;1.80;;
4577;SDS011;2301;47.354;8.528;2022-08-24T14:23:10;1.70;;;1.60;;
4577;SDS011;2301;47.354;8.528;2022-08-24T14:25:48;2.07;;;1.87;;
4577;SDS011;2301;47.354;8.528;2022-08-24T14:28:34;1.60;;;1.50;;
4577;SDS011;2301;47.354;8.528;2022-08-24T14:31:19;2.50;;;1.83;;
4577;SDS011;2301;47.354;8.528;2022-08-24T14:34:02;2.20;;;1.67;;
4577;SDS011;2301;47.354;8.528;2022-08-24T14:36:42;1.60;;;1.50;;
4577;SDS011;2301;47.354;8.528;2022-08-24T14:39:20;1.73;;;1.63;;
4577;SDS011;2301;47.354;8.528;2022-08-24T14:41:57;1.80;;;1.70;;
4577;SDS011;2301;47.354;8.528;2022-08-24T14:44:42;3.00;;;1.70;;
4577;SDS011;2301;47.354;8.528;2022-08-24T14:47:30;2.57;;;1.70;;
4577;SDS011;2301;47.354;8.528;2022-08-24T14:50:07;1.50;;;1.40;;
4577;SDS011;2301;47.354;8.528;2022-08-24T14:52:45;1.87;;;1.70;;
4577;SDS011;2301;47.354;8.528;2022-08-24T14:55:21;2.23;;;1.50;;
4577;SDS011;2301;47.354;8.528;2022-08-24T14:58:03;1.60;;;1.50;;
4577;SDS011;2301;47.354;8.528;2022-08-24T15:00:47;1.60;;;1.50;;
4577;SDS011;2301;47.354;8.528;2022-08-24T15:03:50;1.37;;;1.20;;
4577;SDS011;2301;47.354;8.528;2022-08-24T15:06:25;1.53;;;1.43;;
4577;SDS011;2301;47.354;8.528;2022-08-24T15:09:05;2.30;;;1.20;;
4577;SDS011;2301;47.354;8.528;2022-08-24T15:11:34;3.20;;;1.77;;
4577;SDS011;2301;47.354;8.528;2022-08-24T15:14:06;1.50;;;1.40;;
4577;SDS011;2301;47.354;8.528;2022-08-24T15:16:42;1.40;;;1.30;;
4577;SDS011;2301;47.354;8.528;2022-08-24T15:19:13;7.43;;;1.57;;
4577;SDS011;2301;47.354;8.528;2022-08-24T15:21:48;8.03;;;1.70;;
4577;SDS011;2301;47.354;8.528;2022-08-24T15:24:26;1.80;;;1.63;;
4577;SDS011;2301;47.354;8.528;2022-08-24T15:27:09;3.13;;;1.63;;
4577;SDS011;2301;47.354;8.528;2022-08-24T15:29:49;1.50;;;1.40;;
4577;SDS011;2301;47.354;8.528;2022-08-24T15:32:19;1.47;;;1.37;;
4577;SDS011;2301;47.354;8.528;2022-08-24T15:34:48;2.90;;;1.57;;
4577;SDS011;2301;47.354;8.528;2022-08-24T15:37:24;1.83;;;1.73;;
4577;SDS011;2301;47.354;8.528;2022-08-24T15:39:53;2.07;;;1.83;;
4577;SDS011;2301;47.354;8.528;2022-08-24T15:42:20;2.03;;;1.67;;
4577;SDS011;2301;47.354;8.528;2022-08-24T15:44:49;1.40;;;1.30;;
4577;SDS011;2301;47.354;8.528;2022-08-24T15:47:18;1.70;;;1.60;;
4577;SDS011;2301;47.354;8.528;2022-08-24T15:49:51;2.63;;;1.53;;
4577;SDS011;2301;47.354;8.528;2022-08-24T15:55:15;1.57;;;1.33;;
4577;SDS011;2301;47.354;8.528;2022-08-24T15:57:55;5.63;;;1.50;;
4577;SDS011;2301;47.354;8.528;2022-08-24T16:00:33;2.37;;;1.57;;
4577;SDS011;2301;47.354;8.528;2022-08-24T16:03:19;2.60;;;1.60;;
4577;SDS011;2301;47.354;8.528;2022-08-24T16:05:48;4.00;;;1.80;;
4577;SDS011;2301;47.354;8.528;2022-08-24T16:08:17;1.60;;;1.50;;
4577;SDS011;2301;47.354;8.528;2022-08-24T16:10:45;1.50;;;1.40;;
4577;SDS011;2301;47.354;8.528;2022-08-24T16:13:25;2.03;;;1.50;;
4577;SDS011;2301;47.354;8.528;2022-08-24T16:15:57;1.47;;;1.37;;
4577;SDS011;2301;47.354;8.528;2022-08-24T16:18:39;1.40;;;1.30;;
4577;SDS011;2301;47.354;8.528;2022-08-24T16:21:12;1.57;;;1.47;;
4577;SDS011;2301;47.354;8.528;2022-08-24T16:23:42;1.53;;;1.40;;
4577;SDS011;2301;47.354;8.528;2022-08-24T16:26:18;3.90;;;1.60;;